Time;durP1;ratioP1;P1;durP2;ratioP2;P2;SDS_P1;SDS_P2;PMS_P1;PMS_P2;Temp;Humidity;BMP_temperature;BMP_pressure;BME280_temperature;BME280_humidity;BME280_pressure;Samples;Min_cycle;Max_cycle;Signal;HPM_P1;HPM_P2
2021/03/30 00:00:03;;;;;;;5.25;2.85;;;8.00;57.20;;;;;;5010341;28;20037;-63
2021/03/30 00:02:31;;;;;;;4.60;2.50;;;7.90;57.30;;;;;;5016935;28;20026;-63
2021/03/30 00:04:58;;;;;;;4.97;2.47;;;7.90;57.30;;;;;;5010013;28;20044;-63
2021/03/30 00:07:24;;;;;;;5.22;2.40;;;7.80;57.10;;;;;;5009610;28;20106;-63
2021/03/30 00:09:52;;;;;;;4.70;2.25;;;7.80;57.20;;;;;;5008332;28;20060;-62
2021/03/30 00:12:18;;;;;;;3.60;2.20;;;7.80;57.40;;;;;;5006049;28;20512;-63
2021/03/30 00:14:44;;;;;;;3.53;2.20;;;7.80;57.20;;;;;;5009819;28;20421;-63
2021/03/30 00:17:12;;;;;;;5.57;2.10;;;7.80;57.30;;;;;;5008985;28;20034;-63
2021/03/30 00:19:37;;;;;;;3.75;2.47;;;7.70;57.40;;;;;;5009226;28;20510;-63
2021/03/30 00:22:08;;;;;;;5.63;2.38;;;7.70;57.50;;;;;;5009092;28;20045;-63
2021/03/30 00:24:36;;;;;;;3.25;2.60;;;7.70;57.80;;;;;;5009114;28;20034;-63
2021/03/30 00:27:04;;;;;;;3.42;2.28;;;7.60;57.60;;;;;;5009942;28;20034;-63
2021/03/30 00:29:32;;;;;;;3.45;2.25;;;7.50;57.50;;;;;;5009936;28;20105;-63
2021/03/30 00:32:10;;;;;;;3.22;2.10;;;7.50;57.50;;;;;;5009313;28;20468;-63
2021/03/30 00:34:37;;;;;;;4.90;2.30;;;7.50;57.60;;;;;;5009217;28;20033;-63
2021/03/30 00:37:08;;;;;;;3.55;2.35;;;7.40;57.80;;;;;;5010033;28;20112;-63
2021/03/30 00:39:36;;;;;;;4.95;2.17;;;7.40;58.20;;;;;;5007744;28;20038;-63
2021/03/30 00:42:04;;;;;;;2.47;2.28;;;7.40;58.20;;;;;;5009095;28;20079;-63
2021/03/30 00:44:32;;;;;;;2.75;2.10;;;7.40;58.00;;;;;;5008641;28;20136;-63
2021/03/30 00:47:02;;;;;;;4.45;2.53;;;7.30;58.20;;;;;;5009829;28;20057;-63
2021/03/30 00:49:32;;;;;;;4.53;2.50;;;7.30;58.30;;;;;;5009683;28;20029;-63
2021/03/30 00:51:58;;;;;;;4.88;2.40;;;7.20;58.40;;;;;;5009371;28;20069;-63
2021/03/30 00:54:26;;;;;;;5.25;2.50;;;7.20;58.30;;;;;;5008032;28;20042;-63
2021/03/30 00:56:54;;;;;;;4.45;2.35;;;7.10;58.50;;;;;;5009153;28;20640;-64
2021/03/30 00:59:22;;;;;;;4.70;2.20;;;7.10;58.60;;;;;;5007186;28;20116;-63
2021/03/30 01:01:51;;;;;;;4.65;3.05;;;7.10;58.40;;;;;;5004938;28;20056;-63
2021/03/30 01:04:17;;;;;;;4.32;2.28;;;7.00;58.70;;;;;;5007505;28;20038;-63
2021/03/30 01:06:43;;;;;;;2.97;2.20;;;7.00;58.50;;;;;;5008242;28;20045;-63
2021/03/30 01:09:17;;;;;;;3.83;2.22;;;6.90;58.50;;;;;;5008523;28;20041;-63
2021/03/30 01:12:19;;;;;;;7.07;2.30;;;6.90;58.80;;;;;;5001560;28;20116;-63
2021/03/30 01:14:51;;;;;;;2.50;2.20;;;6.90;59.60;;;;;;4999403;28;20027;-62
2021/03/30 01:17:41;;;;;;;2.70;2.50;;;6.90;59.00;;;;;;5000257;28;20074;-63
2021/03/30 01:20:18;;;;;;;2.78;2.20;;;6.80;59.50;;;;;;5008423;28;20026;-63
2021/03/30 01:23:05;;;;;;;5.75;2.50;;;6.70;58.80;;;;;;5007869;28;20045;-63
2021/03/30 01:25:33;;;;;;;4.70;2.05;;;6.70;59.80;;;;;;4999833;28;20033;-63
2021/03/30 01:28:08;;;;;;;3.08;2.50;;;6.70;58.90;;;;;;5008218;28;20119;-62
2021/03/30 01:30:37;;;;;;;3.58;2.10;;;6.70;59.10;;;;;;5007434;28;20030;-61
2021/03/30 01:33:15;;;;;;;4.72;2.47;;;6.70;59.00;;;;;;5007040;28;20543;-63
2021/03/30 01:35:42;;;;;;;4.03;2.50;;;6.70;59.30;;;;;;5008796;28;20038;-63
2021/03/30 01:38:11;;;;;;;4.20;2.30;;;6.70;59.00;;;;;;5008177;28;20037;-64
2021/03/30 01:40:42;;;;;;;4.45;2.33;;;6.60;58.80;;;;;;5007844;28;20055;-63
2021/03/30 01:43:10;;;;;;;3.67;2.35;;;6.70;59.00;;;;;;5008119;28;20038;-63
2021/03/30 01:45:36;;;;;;;5.47;2.50;;;6.60;59.00;;;;;;5008560;28;20038;-63
2021/03/30 01:48:07;;;;;;;4.10;2.55;;;6.60;59.30;;;;;;5007947;28;20048;-63
2021/03/30 01:50:39;;;;;;;3.90;2.42;;;6.60;59.50;;;;;;5007180;28;20034;-63
2021/03/30 01:53:08;;;;;;;4.07;2.70;;;6.60;59.30;;;;;;5007375;28;20034;-63
2021/03/30 01:55:36;;;;;;;3.22;2.40;;;6.60;59.40;;;;;;5000285;28;20700;-63
2021/03/30 01:58:05;;;;;;;3.80;2.45;;;6.50;59.30;;;;;;5007297;28;20026;-64
2021/03/30 02:00:37;;;;;;;4.85;2.92;;;6.50;60.00;;;;;;5008166;28;20038;-63
2021/03/30 02:03:06;;;;;;;4.95;2.70;;;6.50;59.60;;;;;;5008526;28;20113;-63
2021/03/30 02:05:35;;;;;;;4.80;3.40;;;6.50;59.60;;;;;;5008600;28;20030;-63
2021/03/30 02:08:07;;;;;;;4.50;3.28;;;6.40;59.70;;;;;;5008031;28;20040;-63
2021/03/30 02:10:38;;;;;;;4.40;3.42;;;6.40;60.00;;;;;;5003620;28;20080;-63
2021/03/30 02:13:11;;;;;;;5.20;3.00;;;6.40;59.90;;;;;;5007078;28;20038;-63
2021/03/30 02:15:36;;;;;;;7.40;2.63;;;6.40;60.30;;;;;;5007300;28;20036;-63
2021/03/30 02:18:14;;;;;;;4.07;2.63;;;6.30;59.80;;;;;;5006847;28;20026;-63
2021/03/30 02:20:53;;;;;;;5.43;2.50;;;6.30;61.10;;;;;;5006001;28;20045;-63
2021/03/30 02:23:26;;;;;;;2.85;2.30;;;6.30;59.80;;;;;;4999625;28;20054;-62
2021/03/30 02:26:01;;;;;;;2.88;2.53;;;6.30;59.90;;;;;;5007984;28;20033;-62
2021/03/30 02:28:42;;;;;;;3.05;2.53;;;6.30;59.90;;;;;;5007095;28;20389;-63
2021/03/30 02:31:13;;;;;;;3.53;2.45;;;6.20;60.00;;;;;;5007602;28;20041;-63
2021/03/30 02:33:44;;;;;;;5.55;2.90;;;6.20;59.90;;;;;;5007132;28;20026;-63
2021/03/30 02:36:13;;;;;;;3.20;2.75;;;6.20;59.90;;;;;;5015034;28;20026;-63
2021/03/30 02:38:41;;;;;;;3.80;2.25;;;6.10;60.00;;;;;;5006252;28;20030;-63
2021/03/30 02:41:07;;;;;;;7.72;2.92;;;6.00;59.80;;;;;;5008478;28;20108;-63
2021/03/30 02:43:39;;;;;;;5.18;2.85;;;6.00;60.00;;;;;;5008156;28;20065;-63
2021/03/30 02:46:07;;;;;;;5.63;2.88;;;6.00;60.30;;;;;;5007807;28;20026;-63
2021/03/30 02:48:39;;;;;;;6.13;3.20;;;5.90;60.20;;;;;;5007428;28;20026;-63
2021/03/30 02:51:06;;;;;;;5.60;2.90;;;5.90;60.50;;;;;;4998847;28;20030;-63
2021/03/30 02:53:33;;;;;;;5.22;2.85;;;5.80;60.60;;;;;;5007794;28;20559;-62
2021/03/30 02:56:07;;;;;;;5.60;3.00;;;5.80;60.70;;;;;;5007692;28;20493;-63
2021/03/30 02:58:35;;;;;;;5.15;2.65;;;5.80;61.30;;;;;;5007019;28;20153;-63
2021/03/30 03:01:08;;;;;;;5.13;2.88;;;5.70;60.90;;;;;;5007104;28;20049;-63
2021/03/30 03:03:38;;;;;;;5.22;2.60;;;5.70;60.90;;;;;;5009344;28;20049;-63
2021/03/30 03:06:06;;;;;;;8.32;3.10;;;5.70;61.40;;;;;;5011059;28;20045;-63
2021/03/30 03:08:38;;;;;;;4.80;2.97;;;5.70;61.30;;;;;;5018615;28;20030;-63
2021/03/30 03:11:06;;;;;;;5.78;2.92;;;5.60;61.50;;;;;;5006595;28;20038;-63
2021/03/30 03:13:37;;;;;;;5.68;2.88;;;5.50;62.30;;;;;;5011361;28;20076;-63
2021/03/30 03:16:03;;;;;;;6.38;2.40;;;5.50;62.00;;;;;;5009879;28;20030;-63
2021/03/30 03:18:32;;;;;;;6.15;3.05;;;5.50;62.20;;;;;;5011139;28;20022;-62
2021/03/30 03:21:01;;;;;;;4.22;2.55;;;5.40;62.00;;;;;;5010051;28;20117;-63
2021/03/30 03:23:27;;;;;;;3.33;2.58;;;5.40;62.30;;;;;;5010461;28;20117;-63
2021/03/30 03:25:56;;;;;;;4.57;2.60;;;5.40;62.10;;;;;;5010593;28;20041;-63
2021/03/30 03:28:21;;;;;;;5.20;2.42;;;5.40;63.00;;;;;;5010572;28;20030;-63
2021/03/30 03:30:48;;;;;;;6.72;2.80;;;5.30;61.90;;;;;;5010192;28;20040;-63
2021/03/30 03:33:18;;;;;;;6.65;2.97;;;5.40;62.00;;;;;;5010275;28;20521;-63
2021/03/30 03:36:13;;;;;;;5.72;2.90;;;5.40;62.40;;;;;;5010425;28;20104;-63
2021/03/30 03:38:45;;;;;;;7.88;2.67;;;5.40;63.30;;;;;;5010708;28;20030;-63
2021/03/30 03:41:17;;;;;;;8.45;3.03;;;5.40;62.40;;;;;;5010075;28;20148;-63
2021/03/30 03:43:51;;;;;;;5.00;2.72;;;5.30;62.60;;;;;;5010312;28;20041;-63
2021/03/30 03:46:17;;;;;;;4.18;2.70;;;5.30;62.10;;;;;;5009544;28;20021;-63
2021/03/30 03:48:46;;;;;;;11.30;3.20;;;5.30;62.30;;;;;;5010180;28;20520;-63
2021/03/30 03:51:12;;;;;;;6.07;2.95;;;5.20;62.20;;;;;;5010049;28;20498;-63
2021/03/30 03:53:41;;;;;;;6.78;3.50;;;5.20;62.10;;;;;;5009255;28;20030;-63
2021/03/30 03:56:08;;;;;;;5.25;3.00;;;5.20;62.30;;;;;;5010125;28;20026;-64
2021/03/30 03:58:39;;;;;;;5.68;2.67;;;5.20;62.50;;;;;;5008717;28;20030;-63
2021/03/30 04:01:09;;;;;;;5.65;2.88;;;5.10;62.60;;;;;;5010099;28;20022;-62
2021/03/30 04:03:47;;;;;;;9.98;3.13;;;5.10;62.50;;;;;;5010507;28;20053;-63
2021/03/30 04:06:20;;;;;;;9.63;3.13;;;5.10;63.30;;;;;;5001377;28;20620;-63
2021/03/30 04:08:55;;;;;;;6.07;2.90;;;5.00;62.90;;;;;;5001117;28;20042;-63
2021/03/30 04:11:28;;;;;;;6.70;2.97;;;5.00;63.10;;;;;;5005405;28;20406;-62
2021/03/30 04:13:58;;;;;;;4.22;3.00;;;5.00;63.00;;;;;;5009223;28;20038;-63
2021/03/30 04:16:24;;;;;;;3.88;2.67;;;4.90;63.00;;;;;;5009031;28;20528;-63
2021/03/30 04:18:52;;;;;;;8.70;3.28;;;4.90;62.80;;;;;;5009914;28;20041;-63
2021/03/30 04:21:21;;;;;;;6.18;3.03;;;4.90;63.20;;;;;;5009286;28;20397;-63
2021/03/30 04:23:51;;;;;;;7.40;3.03;;;4.90;63.20;;;;;;5001128;28;20103;-63
2021/03/30 04:26:19;;;;;;;6.55;2.90;;;4.90;63.30;;;;;;5010082;28;20088;-64
2021/03/30 04:28:45;;;;;;;5.68;2.75;;;4.80;63.10;;;;;;5008140;28;20030;-63
2021/03/30 04:31:13;;;;;;;5.18;3.05;;;4.80;63.10;;;;;;5007089;28;20521;-61
2021/03/30 04:33:41;;;;;;;7.07;3.40;;;4.80;63.30;;;;;;4998144;28;20168;-60
2021/03/30 04:36:11;;;;;;;9.27;3.30;;;4.80;63.20;;;;;;5000819;28;20026;-63
2021/03/30 04:38:37;;;;;;;8.05;3.97;;;4.70;63.30;;;;;;5007018;28;20034;-63
2021/03/30 04:41:06;;;;;;;8.52;4.20;;;4.70;63.20;;;;;;5008330;28;20585;-63
2021/03/30 04:43:32;;;;;;;7.47;4.15;;;4.70;63.30;;;;;;5009588;28;20121;-63
2021/03/30 04:45:58;;;;;;;6.93;4.55;;;4.70;63.30;;;;;;5009125;28;20160;-63
2021/03/30 04:48:23;;;;;;;10.55;4.53;;;4.70;63.40;;;;;;5006071;28;20124;-63
2021/03/30 04:50:54;;;;;;;11.50;4.68;;;4.60;63.50;;;;;;5005138;28;20030;-63
2021/03/30 04:53:19;;;;;;;10.20;4.45;;;4.60;63.80;;;;;;5005703;28;20489;-63
2021/03/30 04:55:45;;;;;;;10.18;4.90;;;4.60;63.80;;;;;;5006980;28;20139;-63
2021/03/30 04:58:13;;;;;;;8.48;4.28;;;4.60;63.90;;;;;;5007084;28;20516;-62
2021/03/30 05:00:41;;;;;;;11.45;4.32;;;4.50;63.90;;;;;;5007277;28;20109;-62
2021/03/30 05:03:11;;;;;;;10.30;4.13;;;4.50;63.90;;;;;;5008403;28;20488;-63
2021/03/30 05:05:40;;;;;;;13.23;4.35;;;4.50;63.90;;;;;;5007132;28;20033;-63
2021/03/30 05:08:08;;;;;;;9.75;4.22;;;4.40;64.00;;;;;;5008678;28;20041;-63
2021/03/30 05:10:36;;;;;;;11.55;4.50;;;4.40;64.20;;;;;;5001685;28;20089;-62
2021/03/30 05:13:02;;;;;;;9.65;3.75;;;4.40;64.20;;;;;;5006977;28;20034;-63
2021/03/30 05:15:27;;;;;;;12.63;4.65;;;4.40;64.40;;;;;;5008313;28;20041;-63
2021/03/30 05:17:53;;;;;;;7.22;3.65;;;4.40;64.40;;;;;;5008834;28;20030;-63
2021/03/30 05:20:24;;;;;;;14.07;4.10;;;4.30;64.30;;;;;;5005666;28;20068;-64
2021/03/30 05:22:50;;;;;;;15.57;5.63;;;4.30;64.60;;;;;;5008710;28;20033;-63
2021/03/30 05:25:20;;;;;;;8.68;4.10;;;4.30;64.30;;;;;;5008361;28;20050;-63
2021/03/30 05:27:48;;;;;;;14.52;4.45;;;4.40;64.80;;;;;;5008522;28;20044;-63
2021/03/30 05:30:21;;;;;;;28.17;5.50;;;4.40;64.60;;;;;;5007651;28;20033;-63
2021/03/30 05:32:48;;;;;;;71.25;8.55;;;4.30;65.00;;;;;;5008704;28;20038;-63
2021/03/30 05:35:16;;;;;;;220.93;19.02;;;4.30;65.60;;;;;;5008329;28;20042;-62
2021/03/30 05:37:45;;;;;;;207.50;21.35;;;4.40;64.70;;;;;;5007500;28;20528;-63
2021/03/30 05:40:15;;;;;;;100.88;12.13;;;4.40;64.90;;;;;;5007804;28;20079;-63
2021/03/30 05:42:46;;;;;;;75.70;9.43;;;4.40;65.10;;;;;;5006587;28;20045;-63
2021/03/30 05:45:16;;;;;;;37.38;7.68;;;4.40;65.10;;;;;;5007197;28;20045;-63
2021/03/30 05:47:45;;;;;;;25.88;7.45;;;4.40;65.30;;;;;;5006010;28;20573;-63
2021/03/30 05:50:13;;;;;;;21.88;7.88;;;4.40;65.40;;;;;;5005844;28;20030;-63
2021/03/30 05:53:03;;;;;;;28.55;7.47;;;4.40;65.40;;;;;;5007220;28;20037;-63
2021/03/30 05:55:33;;;;;;;23.70;6.60;;;4.40;65.50;;;;;;5006979;28;20033;-63
2021/03/30 05:58:04;;;;;;;16.88;6.25;;;4.50;65.80;;;;;;5008534;28;20477;-63
2021/03/30 06:00:38;;;;;;;25.75;6.53;;;4.50;65.80;;;;;;5006394;28;20042;-63
2021/03/30 06:03:11;;;;;;;26.73;6.43;;;4.50;65.90;;;;;;5006270;28;20034;-63
2021/03/30 06:05:44;;;;;;;24.05;6.93;;;4.60;66.10;;;;;;4999280;28;20501;-63
2021/03/30 06:08:09;;;;;;;21.00;6.53;;;4.60;66.00;;;;;;4998784;28;20756;-63
2021/03/30 06:10:36;;;;;;;17.17;7.10;;;4.60;65.90;;;;;;5000966;28;20087;-63
2021/03/30 06:13:07;;;;;;;19.08;9.00;;;4.70;66.10;;;;;;5008144;28;20026;-63
2021/03/30 06:15:36;;;;;;;20.85;11.02;;;4.70;66.10;;;;;;5006374;28;20030;-63
2021/03/30 06:18:20;;;;;;;26.70;9.15;;;4.80;66.20;;;;;;4999535;28;20025;-63
2021/03/30 06:20:48;;;;;;;19.83;6.50;;;4.90;67.30;;;;;;5006916;28;20041;-63
2021/03/30 06:23:26;;;;;;;15.85;6.15;;;4.90;66.10;;;;;;5004767;28;20314;-63
2021/03/30 06:25:54;;;;;;;15.93;6.50;;;5.00;67.20;;;;;;5006971;28;20037;-62
2021/03/30 06:28:25;;;;;;;18.60;7.15;;;5.00;66.30;;;;;;5007544;28;20041;-62
2021/03/30 06:31:10;;;;;;;21.33;6.55;;;5.10;66.30;;;;;;5006899;28;20077;-63
2021/03/30 06:33:49;;;;;;;16.65;5.95;;;5.20;67.10;;;;;;5007404;28;20034;-63
2021/03/30 06:36:20;;;;;;;18.90;6.95;;;5.30;66.90;;;;;;5006914;28;20034;-63
2021/03/30 06:39:03;;;;;;;16.98;7.60;;;5.40;67.10;;;;;;5009627;28;20068;-62
2021/03/30 06:41:44;;;;;;;15.02;6.78;;;5.50;66.80;;;;;;5008596;28;20040;-63
2021/03/30 06:44:24;;;;;;;17.80;7.13;;;5.60;66.80;;;;;;5002352;28;20045;-63
2021/03/30 06:47:00;;;;;;;17.35;6.55;;;5.70;66.90;;;;;;5011075;28;20034;-63
2021/03/30 06:49:32;;;;;;;15.98;6.18;;;5.90;66.00;;;;;;5012028;28;20444;-63
2021/03/30 06:51:59;;;;;;;16.38;6.57;;;6.00;65.80;;;;;;5010327;28;20057;-63
2021/03/30 06:54:29;;;;;;;12.63;6.38;;;6.10;65.60;;;;;;5009870;28;20076;-63
2021/03/30 06:56:58;;;;;;;8.77;5.22;;;6.20;65.60;;;;;;5011475;28;20037;-63
2021/03/30 06:59:25;;;;;;;9.98;6.05;;;6.30;65.50;;;;;;5002826;28;20164;-63
2021/03/30 07:01:58;;;;;;;11.93;6.75;;;6.40;65.30;;;;;;5000607;28;20606;-63
2021/03/30 07:04:28;;;;;;;14.60;6.53;;;6.60;65.40;;;;;;5002399;28;20046;-62
2021/03/30 07:06:56;;;;;;;15.18;6.53;;;6.60;65.40;;;;;;5017104;28;20030;-62
2021/03/30 07:09:26;;;;;;;12.43;6.80;;;6.80;65.40;;;;;;5006749;28;20058;-63
2021/03/30 07:11:54;;;;;;;12.68;6.30;;;6.90;65.30;;;;;;5009698;28;20034;-63
2021/03/30 07:14:22;;;;;;;10.85;5.80;;;7.00;65.00;;;;;;5008000;28;20037;-63
2021/03/30 07:16:56;;;;;;;19.40;6.50;;;7.10;65.00;;;;;;5009425;28;20038;-63
2021/03/30 07:19:25;;;;;;;14.67;6.33;;;7.20;65.30;;;;;;5010832;28;20034;-63
2021/03/30 07:21:57;;;;;;;17.60;6.10;;;7.30;64.60;;;;;;5010348;28;20279;-63
2021/03/30 07:24:28;;;;;;;12.00;6.50;;;7.50;64.60;;;;;;5008318;28;20319;-63
2021/03/30 07:27:05;;;;;;;15.35;6.53;;;7.60;64.50;;;;;;5010133;28;20034;-62
2021/03/30 07:29:40;;;;;;;13.20;5.43;;;7.70;64.40;;;;;;5009688;28;20030;-63
2021/03/30 07:32:05;;;;;;;13.50;5.78;;;7.80;64.00;;;;;;5009017;28;20022;-63
2021/03/30 07:34:58;;;;;;;12.02;5.88;;;7.90;63.60;;;;;;5010079;28;20042;-63
2021/03/30 07:37:51;;;;;;;9.38;5.68;;;8.10;63.70;;;;;;5010862;28;20041;-63
2021/03/30 07:40:20;;;;;;;15.88;5.70;;;8.20;63.40;;;;;;5009626;28;20081;-63
2021/03/30 07:42:53;;;;;;;9.13;5.63;;;8.30;62.90;;;;;;5008393;28;20049;-63
2021/03/30 07:45:25;;;;;;;16.75;5.30;;;8.40;62.70;;;;;;5009649;28;20034;-63
2021/03/30 07:47:53;;;;;;;13.85;5.22;;;8.50;62.50;;;;;;5007244;28;20065;-63
2021/03/30 07:50:22;;;;;;;9.65;5.40;;;8.60;62.20;;;;;;5009542;28;20076;-63
2021/03/30 07:52:53;;;;;;;8.70;5.25;;;8.80;62.20;;;;;;5006083;28;20124;-63
2021/03/30 07:55:27;;;;;;;11.77;5.60;;;8.90;62.00;;;;;;5010197;28;20165;-63
2021/03/30 07:58:01;;;;;;;14.57;5.78;;;9.00;62.00;;;;;;5010081;28;20037;-64
2021/03/30 08:00:41;;;;;;;13.75;5.68;;;9.10;61.80;;;;;;5009784;28;20113;-63
2021/03/30 08:03:26;;;;;;;12.10;5.68;;;9.30;62.00;;;;;;5010300;28;20042;-64
2021/03/30 08:06:19;;;;;;;11.10;5.72;;;9.40;61.90;;;;;;5008386;28;20473;-63
2021/03/30 08:08:57;;;;;;;9.25;5.75;;;9.60;61.20;;;;;;5009435;28;20092;-64
2021/03/30 08:11:43;;;;;;;19.65;5.85;;;9.70;60.90;;;;;;5000104;28;20034;-64
2021/03/30 08:14:22;;;;;;;9.30;5.88;;;9.90;60.80;;;;;;5009027;28;20053;-63
2021/03/30 08:16:52;;;;;;;10.52;5.82;;;10.00;60.50;;;;;;5009125;28;20030;-63
2021/03/30 08:19:24;;;;;;;11.63;5.40;;;10.10;60.10;;;;;;5008889;28;20026;-63
2021/03/30 08:21:55;;;;;;;11.48;5.40;;;10.20;59.90;;;;;;5005522;28;20511;-64
2021/03/30 08:24:27;;;;;;;16.05;10.77;;;10.30;59.80;;;;;;5008176;28;20040;-63
2021/03/30 08:26:54;;;;;;;24.27;14.48;;;10.40;59.60;;;;;;5009358;28;20046;-64
2021/03/30 08:29:34;;;;;;;12.55;5.93;;;10.50;59.60;;;;;;5007778;28;20117;-64
2021/03/30 08:32:05;;;;;;;14.00;5.80;;;10.60;59.60;;;;;;5007035;28;20128;-64
2021/03/30 08:34:41;;;;;;;17.02;7.28;;;10.80;59.80;;;;;;5007220;28;20057;-63
2021/03/30 08:37:12;;;;;;;10.35;5.80;;;11.00;60.30;;;;;;5009879;28;20026;-64
2021/03/30 08:39:40;;;;;;;12.88;5.80;;;11.10;59.90;;;;;;5008719;28;20048;-63
2021/03/30 08:42:14;;;;;;;8.25;5.13;;;11.20;59.90;;;;;;5008274;28;20287;-64
2021/03/30 08:44:56;;;;;;;12.68;5.10;;;11.40;59.60;;;;;;5006267;28;20134;-63
2021/03/30 08:47:33;;;;;;;5.78;4.80;;;11.50;59.40;;;;;;5006805;28;20493;-64
2021/03/30 08:50:13;;;;;;;6.60;4.90;;;11.70;59.10;;;;;;5006651;28;20030;-64
2021/03/30 08:52:39;;;;;;;8.63;5.13;;;11.80;58.80;;;;;;5008372;28;20112;-64
2021/03/30 08:55:08;;;;;;;9.13;5.43;;;12.00;58.80;;;;;;5008840;28;20457;-64
2021/03/30 08:57:35;;;;;;;5.50;4.13;;;12.10;58.60;;;;;;5008724;28;20022;-64
2021/03/30 09:00:08;;;;;;;4.88;4.25;;;12.20;58.30;;;;;;5008624;28;20029;-64
2021/03/30 09:02:39;;;;;;;9.05;4.45;;;12.30;58.00;;;;;;5008654;28;20026;-64
2021/03/30 09:05:15;;;;;;;12.43;4.50;;;12.40;57.60;;;;;;5007596;28;20041;-63
2021/03/30 09:07:46;;;;;;;8.45;4.32;;;12.60;57.40;;;;;;5005210;28;20475;-64
2021/03/30 09:10:16;;;;;;;9.32;5.10;;;12.70;57.40;;;;;;5006178;28;20236;-63
2021/03/30 09:12:46;;;;;;;5.75;4.40;;;12.80;57.00;;;;;;5003297;28;20131;-63
2021/03/30 09:15:17;;;;;;;7.15;4.20;;;12.90;56.80;;;;;;5008629;28;20034;-64
2021/03/30 09:18:00;;;;;;;4.40;3.88;;;13.00;56.70;;;;;;5008777;28;20030;-64
2021/03/30 09:20:34;;;;;;;7.38;4.03;;;13.10;56.30;;;;;;5008163;28;20037;-63
2021/03/30 09:23:05;;;;;;;6.28;4.22;;;13.20;56.20;;;;;;5008466;28;20124;-64
2021/03/30 09:25:38;;;;;;;4.28;3.30;;;13.30;56.00;;;;;;5008308;28;20033;-64
2021/03/30 09:28:06;;;;;;;7.50;3.83;;;13.50;55.60;;;;;;5007800;28;20057;-64
2021/03/30 09:30:35;;;;;;;6.07;3.78;;;13.60;55.50;;;;;;4999903;28;20033;-64
2021/03/30 09:33:03;;;;;;;5.78;3.60;;;13.70;55.00;;;;;;5006679;28;20117;-64
2021/03/30 09:35:31;;;;;;;5.93;3.50;;;13.80;55.00;;;;;;5007962;28;20079;-63
2021/03/30 09:38:02;;;;;;;6.22;3.70;;;13.90;54.90;;;;;;5008809;28;20030;-63
2021/03/30 09:40:38;;;;;;;8.43;3.75;;;14.00;54.70;;;;;;5007715;28;20034;-63
2021/03/30 09:43:16;;;;;;;4.57;3.83;;;14.10;54.50;;;;;;5008415;28;20160;-64
2021/03/30 09:45:45;;;;;;;5.38;3.78;;;14.20;54.70;;;;;;5007727;28;20679;-64
2021/03/30 09:48:17;;;;;;;5.97;4.07;;;14.30;54.90;;;;;;5007746;28;20082;-63
2021/03/30 09:50:50;;;;;;;6.13;3.88;;;14.50;54.70;;;;;;4998438;28;20033;-64
2021/03/30 09:53:21;;;;;;;5.05;3.90;;;14.50;54.50;;;;;;5005999;28;20041;-64
2021/03/30 09:55:49;;;;;;;5.90;3.53;;;14.70;54.20;;;;;;5005780;28;20126;-64
2021/03/30 09:58:21;;;;;;;5.00;3.63;;;14.80;54.00;;;;;;5007267;28;20500;-64
2021/03/30 10:00:50;;;;;;;6.38;3.45;;;14.90;53.30;;;;;;5004569;28;20049;-63
2021/03/30 10:03:20;;;;;;;6.18;3.50;;;15.10;53.30;;;;;;5007764;28;20048;-64
2021/03/30 10:05:50;;;;;;;7.25;3.78;;;15.10;52.40;;;;;;4999370;28;20060;-64
2021/03/30 10:08:29;;;;;;;5.35;3.85;;;15.30;52.40;;;;;;5003748;28;20069;-64
2021/03/30 10:10:59;;;;;;;7.00;4.03;;;15.40;51.00;;;;;;5003763;28;20165;-64
2021/03/30 10:13:36;;;;;;;4.07;3.40;;;15.60;51.00;;;;;;5005021;28;20042;-63
2021/03/30 10:16:06;;;;;;;4.50;3.90;;;15.70;51.20;;;;;;5005343;28;20046;-64
2021/03/30 10:18:33;;;;;;;4.45;3.80;;;15.90;51.30;;;;;;4998367;28;20040;-63
2021/03/30 10:21:09;;;;;;;8.65;4.40;;;16.00;51.00;;;;;;5002643;28;20038;-63
2021/03/30 10:23:53;;;;;;;6.43;3.78;;;16.10;50.40;;;;;;5006988;28;20034;-63
2021/03/30 10:26:22;;;;;;;5.65;4.32;;;16.30;50.40;;;;;;5006162;28;20034;-63
2021/03/30 10:29:20;;;;;;;11.77;4.68;;;16.40;50.40;;;;;;5006000;28;20034;-63
2021/03/30 10:32:04;;;;;;;4.97;4.03;;;16.60;49.70;;;;;;5005583;28;20233;-63
2021/03/30 10:34:34;;;;;;;7.00;4.32;;;16.70;49.80;;;;;;5005034;28;20544;-63
2021/03/30 10:37:04;;;;;;;7.35;4.50;;;16.80;49.70;;;;;;5000241;28;20042;-63
2021/03/30 10:39:36;;;;;;;6.95;4.28;;;16.90;49.40;;;;;;5001803;28;20080;-64
2021/03/30 10:42:09;;;;;;;7.75;4.35;;;17.00;49.30;;;;;;5005076;28;20045;-64
2021/03/30 10:44:39;;;;;;;9.77;4.75;;;17.20;48.90;;;;;;5006935;28;20042;-63
2021/03/30 10:47:48;;;;;;;4.80;4.13;;;17.20;48.40;;;;;;5006353;28;20034;-63
2021/03/30 10:50:21;;;;;;;6.78;4.38;;;17.40;48.30;;;;;;4984452;28;20031;-63
2021/03/30 10:52:46;;;;;;;7.72;5.40;;;17.50;48.50;;;;;;4985172;28;20109;-63
2021/03/30 10:55:20;;;;;;;19.73;5.15;;;17.60;47.60;;;;;;4996680;28;20179;-63
2021/03/30 10:57:47;;;;;;;7.38;4.35;;;17.70;47.80;;;;;;4998660;28;20025;-63
2021/03/30 11:00:17;;;;;;;9.93;4.68;;;17.80;48.00;;;;;;5006545;28;20026;-63
2021/03/30 11:02:45;;;;;;;5.40;4.43;;;17.90;48.00;;;;;;5006550;28;20409;-63
2021/03/30 11:05:16;;;;;;;7.80;4.63;;;18.00;48.00;;;;;;5007223;28;20069;-63
2021/03/30 11:07:43;;;;;;;7.05;4.72;;;18.20;48.00;;;;;;5006879;28;20066;-63
2021/03/30 11:10:14;;;;;;;7.28;5.22;;;18.30;47.70;;;;;;5005196;28;20030;-63
2021/03/30 11:12:42;;;;;;;8.82;4.68;;;18.40;47.30;;;;;;5002941;28;20505;-63
2021/03/30 11:15:11;;;;;;;7.53;5.15;;;18.50;47.30;;;;;;5005975;28;20046;-60
2021/03/30 11:17:39;;;;;;;11.70;5.60;;;18.70;46.80;;;;;;5005952;28;20037;-64
2021/03/30 11:20:07;;;;;;;6.97;5.18;;;18.70;45.20;;;;;;5007302;28;20068;-63
2021/03/30 11:22:32;;;;;;;6.03;4.50;;;18.80;45.30;;;;;;5006427;28;20053;-63
2021/03/30 11:25:04;;;;;;;5.78;4.13;;;18.90;46.00;;;;;;5009611;28;20591;-63
2021/03/30 11:27:33;;;;;;;5.93;4.55;;;19.00;45.40;;;;;;5008393;28;20030;-63
2021/03/30 11:30:17;;;;;;;6.50;4.22;;;19.20;43.80;;;;;;5009217;28;20049;-63
2021/03/30 11:33:21;;;;;;;5.15;4.05;;;19.30;43.90;;;;;;5009422;28;20037;-63
2021/03/30 11:38:24;;;;;;;7.47;4.23;;;19.50;43.80;;;;;;5008049;28;20052;-63
2021/03/30 11:40:52;;;;;;;7.68;4.15;;;19.50;43.40;;;;;;5009087;28;20353;-64
2021/03/30 11:43:20;;;;;;;4.80;3.60;;;19.60;42.60;;;;;;5010309;28;20092;-63
2021/03/30 11:45:46;;;;;;;5.18;3.17;;;19.70;42.10;;;;;;5009217;28;20125;-64
2021/03/30 11:48:14;;;;;;;4.15;3.22;;;19.80;41.80;;;;;;5009798;28;20117;-64
2021/03/30 11:50:42;;;;;;;3.67;2.88;;;19.90;41.50;;;;;;5006895;28;20120;-63
2021/03/30 11:53:10;;;;;;;3.40;2.58;;;20.00;40.90;;;;;;5008178;28;20038;-63
2021/03/30 11:55:36;;;;;;;4.93;3.28;;;20.10;40.10;;;;;;5009525;28;20037;-63
2021/03/30 11:58:04;;;;;;;5.55;3.60;;;20.20;40.10;;;;;;5007063;28;20079;-63
2021/03/30 12:00:32;;;;;;;6.65;3.10;;;20.30;38.70;;;;;;5009048;28;20080;-63
2021/03/30 12:02:58;;;;;;;3.95;2.67;;;20.40;39.80;;;;;;5008590;28;20044;-63
2021/03/30 12:05:26;;;;;;;3.92;2.45;;;20.40;39.50;;;;;;5009512;28;20124;-63
2021/03/30 12:07:58;;;;;;;4.20;2.80;;;20.50;39.30;;;;;;5009991;28;20552;-63
2021/03/30 12:10:24;;;;;;;4.45;2.42;;;20.60;38.70;;;;;;5006133;28;20065;-64
2021/03/30 12:12:50;;;;;;;4.07;3.22;;;20.70;38.80;;;;;;5009384;28;20069;-64
2021/03/30 12:15:17;;;;;;;4.47;3.00;;;20.70;38.50;;;;;;5009392;28;20588;-64
2021/03/30 12:17:43;;;;;;;4.57;3.13;;;20.80;38.30;;;;;;5007188;28;20578;-64
2021/03/30 12:20:15;;;;;;;3.70;2.67;;;20.90;37.80;;;;;;5008293;28;20034;-64
2021/03/30 12:22:44;;;;;;;4.18;2.88;;;20.90;37.10;;;;;;5009079;28;20124;-64
2021/03/30 12:25:10;;;;;;;2.70;2.50;;;21.00;37.10;;;;;;5009081;28;20034;-64
2021/03/30 12:27:38;;;;;;;4.72;2.70;;;21.00;36.60;;;;;;5009571;28;20046;-64
2021/03/30 12:30:05;;;;;;;2.95;2.28;;;21.10;36.90;;;;;;5007831;28;20029;-64
2021/03/30 12:32:30;;;;;;;5.72;2.05;;;21.10;36.40;;;;;;4999247;28;20501;-64
2021/03/30 12:34:56;;;;;;;2.25;1.60;;;21.20;35.90;;;;;;5008738;28;20038;-63
2021/03/30 12:37:24;;;;;;;4.88;2.10;;;21.20;35.40;;;;;;5007982;28;20034;-63
2021/03/30 12:39:50;;;;;;;2.42;1.65;;;21.30;35.00;;;;;;5009248;28;20025;-63
2021/03/30 12:42:17;;;;;;;3.80;1.65;;;21.40;34.70;;;;;;5009262;28;20559;-64
2021/03/30 12:44:43;;;;;;;7.07;1.60;;;21.40;34.20;;;;;;5008623;28;20564;-64
2021/03/30 12:47:09;;;;;;;2.63;1.80;;;21.50;34.70;;;;;;5008054;28;20113;-64
2021/03/30 12:49:34;;;;;;;2.75;2.03;;;21.50;33.70;;;;;;5006631;28;20040;-64
2021/03/30 12:52:05;;;;;;;5.00;2.10;;;21.50;34.00;;;;;;5007054;28;20064;-63
2021/03/30 12:54:31;;;;;;;4.70;2.05;;;21.50;33.80;;;;;;5006085;28;20058;-64
2021/03/30 12:56:59;;;;;;;2.83;2.00;;;21.60;34.10;;;;;;5008846;28;20464;-63
2021/03/30 12:59:27;;;;;;;2.50;2.30;;;21.60;33.80;;;;;;5008437;28;20539;-63
2021/03/30 13:01:57;;;;;;;3.17;2.20;;;21.70;33.00;;;;;;5008484;28;20088;-63
2021/03/30 13:04:25;;;;;;;3.15;1.85;;;21.70;32.80;;;;;;5000281;28;20034;-63
2021/03/30 13:06:51;;;;;;;2.22;2.03;;;21.70;33.40;;;;;;5006351;28;20030;-63
2021/03/30 13:09:16;;;;;;;4.15;2.25;;;21.70;33.60;;;;;;5007711;28;20029;-63
2021/03/30 13:11:47;;;;;;;3.75;2.30;;;21.80;33.70;;;;;;5004167;28;20049;-63